Flight Track Log - Related Links

Times and Time Zones

All times are in EDT time to prevent confusion due to time zone crossing. See the N210BB flight status page for this flight to view local times or setup timezone preferences in your user account.

Time Position Orientation Groundspeed Altitude Reporting Facility
EDT Latitude Longitude Course Direction KTS MPH feet Rate Location/Type
Thu 01:02:38 PM 40.3811 -90.3344 113° Southeast 147 169 5,400  Level Chicago Center
Thu 01:03:40 PM 40.3619 -90.2753 113° Southeast 148 170 6,000 528 Climbing Chicago Center
Thu 01:04:43 PM 40.3472 -90.2253 111° Southeast 148 170 6,500 480 Climbing Chicago Center
Thu 01:05:45 PM 40.3322 -90.1758 112° Southeast 147 169 7,000 532 Climbing Chicago Center
Thu 01:06:47 PM 40.3158 -90.1275 114° Southeast 146 168 7,600 581 Climbing Chicago Center
Thu 01:07:49 PM 40.3008 -90.0767 111° Southeast 149 171 8,200 581 Climbing Chicago Center
Thu 01:08:00 PM 40.4120 -90.3042 113° Southeast  Level Estimated
Thu 01:08:51 PM 40.2833 -90.0144 110° East 152 175 8,800  Level Kansas City Center
Thu 01:09:53 PM 40.2658 -89.9594 113° Southeast 156 180 8,900 48 Climbing Kansas City Center
Thu 01:10:55 PM 40.2483 -89.9003 111° Southeast 165 190 8,900  Level Kansas City Center
Thu 01:11:57 PM 40.2294 -89.8383 112° Southeast 176 203 8,900  Level Chicago Center
Thu 01:12:59 PM 40.2114 -89.7797 112° Southeast 176 203 8,900  Level Chicago Center
Thu 01:14:01 PM 40.1922 -89.7183 112° Southeast 179 206 8,900 -48 Level Chicago Center
Thu 01:15:03 PM 40.1736 -89.6583 112° Southeast 179 206 8,800  Descending Chicago Center
Thu 01:16:05 PM 40.1503 -89.5853 113° Southeast 182 209 8,900 48 Climbing Chicago Center
Thu 01:17:07 PM 40.1322 -89.5256 112° Southeast 178 205 8,900  Level Chicago Center
Thu 01:18:09 PM 40.1153 -89.4672 111° Southeast 178 205 8,900  Level Kansas City Center
Thu 01:19:11 PM 40.0967 -89.4064 112° Southeast 179 206 8,900  Level Kansas City Center
Thu 01:20:14 PM 40.0769 -89.3492 114° Southeast 175 201 8,900 -48 Level Kansas City Center
Thu 01:21:16 PM 40.0550 -89.2781 112° Southeast 177 204 8,800  Descending Kansas City Center
Thu 01:22:18 PM 40.0358 -89.2206 114° Southeast 175 201 8,900 48 Climbing Kansas City Center
Thu 01:23:20 PM 40.0169 -89.1611 113° Southeast 177 204 8,900  Level Kansas City Center
Thu 01:24:21 PM 39.9981 -89.1008 112° Southeast 177 204 8,900 -49 Level Chicago Center
Thu 01:25:23 PM 39.9797 -89.0419 112° Southeast 175 201 8,800  Descending Chicago Center
Thu 01:26:25 PM 39.9611 -88.9839 113° Southeast 176 203 8,900 48 Climbing Chicago Center
Thu 01:27:27 PM 39.9394 -88.9133 112° Southeast 174 200 8,900  Level Chicago Center
Thu 01:28:29 PM 39.9208 -88.8539 112° Southeast 175 201 8,900 -48 Level Chicago Center
Thu 01:29:31 PM 39.9011 -88.7964 114° Southeast 176 203 8,800  Descending Chicago Center
Thu 01:30:33 PM 39.8825 -88.7386 113° Southeast 173 199 8,900 48 Climbing Chicago Center
Thu 01:31:36 PM 39.8642 -88.6819 113° Southeast 175 201 8,900  Level Kansas City Center
Thu 01:32:38 PM 39.8461 -88.6228 112° Southeast 175 201 8,900  Level Kansas City Center
Thu 01:33:40 PM 39.8222 -88.5533 114° Southeast 175 201 8,900  Level Kansas City Center
Thu 01:34:42 PM 39.8039 -88.4956 112° Southeast 174 200 8,900  Level Kansas City Center
Thu 01:35:44 PM 39.7833 -88.4386 115° Southeast 175 201 8,900  Level Kansas City Center
Thu 01:36:46 PM 39.7664 -88.3800 111° Southeast 172 198 8,900  Level Kansas City Center
Thu 01:38:46 PM 39.7281 -88.2617 113° Southeast 170 196 8,900  Level Indianapolis Center
Thu 01:39:48 PM 39.7078 -88.2042 115° Southeast 174 200 8,900  Level Indianapolis Center
Thu 01:40:49 PM 39.6897 -88.1464 112° Southeast 174 200 8,900  Level Indianapolis Center
Thu 01:41:51 PM 39.6717 -88.0900 113° Southeast 171 197 8,900  Level Indianapolis Center
Thu 01:42:53 PM 39.6525 -88.0328 113° Southeast 173 199 8,900  Level Indianapolis Center
Thu 01:43:54 PM 39.6339 -87.9769 113° Southeast 171 197 8,900  Level Indianapolis Center
Thu 01:44:56 PM 39.6106 -87.9086 114° Southeast 172 198 8,900  Level Indianapolis Center
Thu 01:45:57 PM 39.5933 -87.8514 111° Southeast 172 198 8,900 -49 Level Indianapolis Center
Thu 01:46:59 PM 39.5736 -87.7933 114° Southeast 175 201 8,800  Descending Indianapolis Center
Thu 01:48:01 PM 39.5544 -87.7375 114° Southeast 172 198 8,900 49 Climbing Indianapolis Center
Thu 01:49:02 PM 39.5353 -87.6825 114° Southeast 171 197 8,900 -49 Level Indianapolis Center
Thu 01:50:04 PM 39.5169 -87.6258 113° Southeast 171 197 8,800  Descending Indianapolis Center
Thu 01:51:05 PM 39.4969 -87.5692 115° Southeast 173 199 8,900 49 Climbing Indianapolis Center
Thu 01:52:07 PM 39.4750 -87.5025 113° Southeast 170 196 8,900  Level Indianapolis Center
Thu 01:53:09 PM 39.4575 -87.4461 112° Southeast 169 194 8,900  Level Indianapolis Center
Thu 01:54:10 PM 39.4378 -87.3903 115° Southeast 171 197 8,900 -49 Level Indianapolis Center
Thu 01:55:12 PM 39.4192 -87.3353 114° Southeast 169 194 8,800 -49 Descending Indianapolis Center
Thu 01:56:13 PM 39.4000 -87.2781 113° Southeast 172 198 8,800 49 Level Indianapolis Center
Thu 01:57:15 PM 39.3819 -87.2219 113° Southeast 172 198 8,900  Climbing Indianapolis Center
Thu 01:58:17 PM 39.3633 -87.1664 113° Southeast 170 196 8,800  Descending Indianapolis Center
Thu 01:59:18 PM 39.3417 -87.0986 112° Southeast 171 197 8,900 49 Climbing Indianapolis Center
Thu 02:00:20 PM 39.3214 -87.0419 115° Southeast 172 198 8,900  Level Indianapolis Center
Thu 02:01:21 PM 39.3008 -86.9839 115° Southeast 175 201 8,900  Level Indianapolis Center
Thu 02:02:23 PM 39.2806 -86.9278 115° Southeast 175 201 8,900 -48 Level Indianapolis Center
Thu 02:03:25 PM 39.2619 -86.8739 114° Southeast 169 194 8,800  Descending Indianapolis Center
Thu 02:04:26 PM 39.2403 -86.8192 117° Southeast 170 196 8,900 49 Climbing Indianapolis Center
Thu 02:05:28 PM 39.2186 -86.7497 112° Southeast 173 199 8,900  Level Indianapolis Center
Thu 02:06:30 PM 39.1986 -86.6919 114° Southeast 176 203 8,900  Level Indianapolis Center
Thu 02:07:31 PM 39.1792 -86.6344 114° Southeast 177 204 8,900  Level Indianapolis Center
Thu 02:08:33 PM 39.1589 -86.5778 115° Southeast 175 201 8,900  Level Indianapolis Center
Thu 02:09:35 PM 39.1386 -86.5214 115° Southeast 175 201 8,900 -244 Level Indianapolis Center
Thu 02:10:36 PM 39.1183 -86.4611 113° Southeast 180 207 8,400 -585 Descending Indianapolis Center
Thu 02:11:38 PM 39.0925 -86.3861 114° Southeast 189 217 7,700 -581 Descending Indianapolis Center
Thu 02:12:40 PM 39.0708 -86.3225 114° Southeast 193 222 7,200 -537 Descending Indianapolis Center
Thu 02:13:41 PM 39.0486 -86.2617 115° Southeast 192 221 6,600 -488 Descending Indianapolis Center
Thu 02:14:43 PM 39.0283 -86.2025 114° Southeast 185 213 6,200 -290 Descending Indianapolis Center
Thu 02:15:45 PM 39.0081 -86.1447 114° Southeast 181 208 6,000 -97 Descending Indianapolis Center
Thu 02:16:47 PM 38.9886 -86.0903 115° Southeast 173 199 6,000  Level Indianapolis Center

Login

Don't have an account? Register now (free) for customized features, flight alerts, and more!